KAEX/AEX METAR and TAF weather

Enter ICAO airport designator
Station Type Date Time Source
KAEX METAR 2018/07/21 12:53 UTC NOAA

KAEX 211253Z 25004KT 5SM BR CLR 26/24 A2999 RMK AO2 SLP155 T02560244 $


Station Type Date Time Source
KAEX Decoded METAR 2018/07/21 12:53 UTC NOAA

ALEXANDRIA INTERNATIONAL AIRPORT, LA, United States (KAEX) 31-33N 092-56W 27M
Jul 21, 2018 - 08:53 AM EDT / 2018.07.21 1253 UTC
Wind: from the WSW (250 degrees) at 5 MPH (4 KT):0
Visibility: 5 mile(s):0
Sky conditions: clear
Weather: mist
Temperature: 78.1 F (25.6 C)
Dew Point: 75.9 F (24.4 C)
Relative Humidity: 93%
Pressure (altimeter): 29.99 in. Hg (1015 hPa)
ob: KAEX 211253Z 25004KT 5SM BR CLR 26/24 A2999 RMK AO2 SLP155 T02560244
cycle: 13

Station Type Date Time Source
KAEX TAF 2018/07/21 12:22 UTC NOAA

TAF KAEX 211120Z 2112/2212 VRB04KT P6SM FEW250
FM212000 25006KT P6SM SKC
FM212300 VRB04KT P6SM FEW250


Example: see airport list